Time,TemperatureF,DewpointF,PressureIn,WindDirection,WindDirectionDegrees,WindSpeedMPH,WindSpeedGustMPH,Humidity,HourlyPrecipIn,Conditions,Clouds,dailyrainin,SoftwareType,DateUTC
2013-01-21 00:04:00,43.0,30.0,30.10,NW,323,0.0,-999.0,59,-99.99,,,-99.99,,2013-01-21 05:04:00,
2013-01-21 00:12:00,43.0,30.0,30.10,NW,323,0.0,-999.0,59,-99.99,,,-99.99,,2013-01-21 05:12:00,
2013-01-21 00:22:00,42.0,29.0,30.09,NW,313,0.0,-999.0,59,-99.99,,,-99.99,,2013-01-21 05:22:00,
2013-01-21 00:34:00,42.0,29.0,30.09,NW,308,1.0,-999.0,60,-99.99,,,-99.99,,2013-01-21 05:34:00,
2013-01-21 00:42:00,42.0,29.0,30.09,NW,308,1.0,-999.0,60,-99.99,,,-99.99,,2013-01-21 05:42:00,
2013-01-21 00:52:00,42.0,29.0,30.09,NW,317,0.0,-999.0,60,-99.99,,,-99.99,,2013-01-21 05:52:00,
2013-01-21 01:03:00,42.0,29.0,30.08,NW,314,1.0,-999.0,60,-99.99,,,-99.99,,2013-01-21 06:03:00,
2013-01-21 01:13:00,42.0,29.0,30.08,NW,314,1.0,-999.0,60,-99.99,,,-99.99,,2013-01-21 06:13:00,
2013-01-21 01:23:00,42.0,28.0,30.08,NW,314,0.0,-999.0,58,-99.99,,,-99.99,,2013-01-21 06:23:00,
2013-01-21 01:33:00,42.0,28.0,30.08,NW,315,1.0,-999.0,58,-99.99,,,-99.99,,2013-01-21 06:33:00,
2013-01-21 01:43:00,42.0,28.0,30.08,NW,315,1.0,-999.0,58,-99.99,,,-99.99,,2013-01-21 06:43:00,
2013-01-21 01:52:00,42.0,28.0,30.08,NW,317,1.0,-999.0,57,-99.99,,,-99.99,,2013-01-21 06:52:00,
2013-01-21 02:03:00,42.0,28.0,30.08,NW,321,0.0,-999.0,58,-99.99,,,-99.99,,2013-01-21 07:03:00,
2013-01-21 02:13:00,42.0,28.0,30.08,NW,321,0.0,-999.0,58,-99.99,,,-99.99,,2013-01-21 07:13:00,
2013-01-21 02:23:00,41.0,27.0,30.08,NW,321,0.0,-999.0,58,-99.99,,,-99.99,,2013-01-21 07:23:00,
2013-01-21 02:33:00,40.0,28.0,30.08,NW,321,0.0,-999.0,61,-99.99,,,-99.99,,2013-01-21 07:33:00,
2013-01-21 02:42:00,40.0,28.0,30.08,NW,321,0.0,-999.0,61,-99.99,,,-99.99,,2013-01-21 07:42:00,
2013-01-21 02:52:00,40.0,28.0,30.07,NW,321,0.0,-999.0,63,-99.99,,,-99.99,,2013-01-21 07:52:00,
2013-01-21 03:03:00,40.0,28.0,30.07,NW,321,0.0,-999.0,62,-99.99,,,-99.99,,2013-01-21 08:03:00,
2013-01-21 03:14:00,40.0,28.0,30.07,NW,321,0.0,-999.0,62,-99.99,,,-99.99,,2013-01-21 08:14:00,
2013-01-21 03:23:00,40.0,28.0,30.07,NW,321,0.0,-999.0,61,-99.99,,,-99.99,,2013-01-21 08:23:00,
2013-01-21 03:33:00,38.0,27.0,30.07,SSW,207,0.0,-999.0,65,-99.99,,,-99.99,,2013-01-21 08:33:00,
2013-01-21 03:42:00,38.0,27.0,30.07,SSW,207,0.0,-999.0,65,-99.99,,,-99.99,,2013-01-21 08:42:00,
2013-01-21 03:53:00,39.0,28.0,30.06,SSW,207,0.0,-999.0,64,-99.99,,,-99.99,,2013-01-21 08:53:00,
2013-01-21 04:03:00,38.0,28.0,30.05,SSW,207,0.0,-999.0,66,-99.99,,,-99.99,,2013-01-21 09:03:00,
2013-01-21 04:12:00,38.0,28.0,30.05,SSW,207,0.0,-999.0,66,-99.99,,,-99.99,,2013-01-21 09:12:00,
2013-01-21 04:23:00,38.0,27.0,30.06,SSW,207,0.0,-999.0,65,-99.99,,,-99.99,,2013-01-21 09:23:00,
2013-01-21 04:33:00,38.0,27.0,30.06,NW,307,0.0,-999.0,64,-99.99,,,-99.99,,2013-01-21 09:33:00,
2013-01-21 04:42:00,38.0,27.0,30.06,NW,307,0.0,-999.0,64,-99.99,,,-99.99,,2013-01-21 09:42:00,
2013-01-21 04:53:00,39.0,26.0,30.06,NW,308,0.0,-999.0,60,-99.99,,,-99.99,,2013-01-21 09:53:00,
2013-01-21 05:03:00,40.0,26.0,30.05,NW,313,1.0,-999.0,57,-99.99,,,-99.99,,2013-01-21 10:03:00,
2013-01-21 05:12:00,40.0,26.0,30.05,NW,313,1.0,-999.0,57,-99.99,,,-99.99,,2013-01-21 10:12:00,
2013-01-21 05:22:00,40.0,26.0,30.05,NW,306,0.0,-999.0,57,-99.99,,,-99.99,,2013-01-21 10:22:00,
2013-01-21 05:33:00,40.0,26.0,30.05,NW,311,2.0,-999.0,56,-99.99,,,-99.99,,2013-01-21 10:33:00,
2013-01-21 05:43:00,40.0,26.0,30.05,NW,311,2.0,-999.0,56,-99.99,,,-99.99,,2013-01-21 10:43:00,
2013-01-21 05:52:00,40.0,25.0,30.04,NW,315,0.0,-999.0,55,-99.99,,,-99.99,,2013-01-21 10:52:00,
2013-01-21 06:03:00,39.0,25.0,30.04,NW,315,0.0,-999.0,57,-99.99,,,-99.99,,2013-01-21 11:03:00,
2013-01-21 06:13:00,39.0,25.0,30.04,NW,315,0.0,-999.0,57,-99.99,,,-99.99,,2013-01-21 11:13:00,
2013-01-21 06:23:00,39.0,25.0,30.04,NW,315,0.0,-999.0,57,-99.99,,,-99.99,,2013-01-21 11:23:00,
2013-01-21 06:33:00,39.0,25.0,30.03,NW,315,0.0,-999.0,57,-99.99,,,-99.99,,2013-01-21 11:33:00,
2013-01-21 06:43:00,39.0,25.0,30.03,NW,315,0.0,-999.0,57,-99.99,,,-99.99,,2013-01-21 11:43:00,
2013-01-21 06:53:00,38.0,25.0,30.04,NW,315,0.0,-999.0,60,-99.99,,,-99.99,,2013-01-21 11:53:00,
2013-01-21 07:03:00,36.0,25.0,30.04,NW,315,0.0,-999.0,64,-99.99,,,-99.99,,2013-01-21 12:03:00,
2013-01-21 07:12:00,36.0,25.0,30.04,NW,315,0.0,-999.0,64,-99.99,,,-99.99,,2013-01-21 12:12:00,
2013-01-21 07:22:00,36.0,25.0,30.03,NW,315,0.0,-999.0,65,-99.99,,,-99.99,,2013-01-21 12:22:00,
2013-01-21 07:33:00,35.0,25.0,30.04,NW,315,0.0,-999.0,66,-99.99,,,-99.99,,2013-01-21 12:33:00,
2013-01-21 07:42:00,35.0,25.0,30.04,NW,315,0.0,-999.0,66,-99.99,,,-99.99,,2013-01-21 12:42:00,
2013-01-21 07:52:00,36.0,26.0,30.05,NW,315,0.0,-999.0,67,-99.99,,,-99.99,,2013-01-21 12:52:00,
2013-01-21 08:03:00,36.0,26.0,30.05,NW,315,0.0,-999.0,68,-99.99,,,-99.99,,2013-01-21 13:03:00,
2013-01-21 08:13:00,36.0,26.0,30.05,NW,315,0.0,-999.0,68,-99.99,,,-99.99,,2013-01-21 13:13:00,
2013-01-21 08:23:00,36.0,26.0,30.05,NW,315,0.0,-999.0,68,-99.99,,,-99.99,,2013-01-21 13:23:00,
2013-01-21 08:33:00,36.0,27.0,30.05,NW,315,0.0,-999.0,69,-99.99,,,-99.99,,2013-01-21 13:33:00,
2013-01-21 08:43:00,36.0,27.0,30.05,NW,315,0.0,-999.0,69,-99.99,,,-99.99,,2013-01-21 13:43:00,
2013-01-21 08:53:00,36.0,26.0,30.06,NW,315,0.0,-999.0,68,-99.99,,,-99.99,,2013-01-21 13:53:00,
2013-01-21 09:04:00,37.0,28.0,30.06,NW,315,0.0,-999.0,69,-99.99,,,-99.99,,2013-01-21 14:04:00,
2013-01-21 09:12:00,37.0,28.0,30.06,NW,315,0.0,-999.0,69,-99.99,,,-99.99,,2013-01-21 14:12:00,
2013-01-21 09:23:00,38.0,29.0,30.05,NW,315,0.0,-999.0,71,-99.99,,,-99.99,,2013-01-21 14:23:00,
2013-01-21 09:33:00,40.0,30.0,30.06,NW,315,0.0,-999.0,66,-99.99,,,-99.99,,2013-01-21 14:33:00,
2013-01-21 09:43:00,40.0,30.0,30.06,NW,315,0.0,-999.0,66,-99.99,,,-99.99,,2013-01-21 14:43:00,
2013-01-21 09:53:00,42.0,31.0,30.06,NW,315,0.0,-999.0,64,-99.99,,,-99.99,,2013-01-21 14:53:00,
2013-01-21 10:03:00,44.0,31.0,30.06,NW,315,0.0,-999.0,59,-99.99,,,-99.99,,2013-01-21 15:03:00,
2013-01-21 10:13:00,44.0,31.0,30.06,NW,315,0.0,-999.0,59,-99.99,,,-99.99,,2013-01-21 15:13:00,
2013-01-21 10:23:00,45.0,31.0,30.06,NW,315,0.0,-999.0,57,-99.99,,,-99.99,,2013-01-21 15:23:00,
2013-01-21 10:33:00,46.0,31.0,30.06,SW,231,0.0,-999.0,55,-99.99,,,-99.99,,2013-01-21 15:33:00,
2013-01-21 10:43:00,46.0,31.0,30.06,SW,231,0.0,-999.0,55,-99.99,,,-99.99,,2013-01-21 15:43:00,
2013-01-21 10:53:00,46.0,30.0,30.06,South,176,0.0,-999.0,53,-99.99,,,-99.99,,2013-01-21 15:53:00,
2013-01-21 11:04:00,46.0,31.0,30.06,South,180,1.0,-999.0,56,-99.99,,,-99.99,,2013-01-21 16:04:00,
2013-01-21 11:13:00,46.0,31.0,30.06,South,180,1.0,-999.0,56,-99.99,,,-99.99,,2013-01-21 16:13:00,
2013-01-21 11:23:00,47.0,33.0,30.05,South,171,0.0,-999.0,57,-99.99,,,-99.99,,2013-01-21 16:23:00,
2013-01-21 11:33:00,49.0,31.0,30.05,SSW,205,0.0,-999.0,50,-99.99,,,-99.99,,2013-01-21 16:33:00,
2013-01-21 11:43:00,49.0,31.0,30.05,SSW,205,0.0,-999.0,50,-99.99,,,-99.99,,2013-01-21 16:43:00,
2013-01-21 11:53:00,51.0,22.0,30.04,WNW,299,4.0,-999.0,32,-99.99,,,-99.99,,2013-01-21 16:53:00,
2013-01-21 12:03:00,51.0,23.0,30.03,WNW,286,6.0,-999.0,33,-99.99,,,-99.99,,2013-01-21 17:03:00,
2013-01-21 12:12:00,51.0,23.0,30.03,WNW,286,6.0,-999.0,33,-99.99,,,-99.99,,2013-01-21 17:12:00,
2013-01-21 12:23:00,51.0,24.0,30.02,West,262,4.0,-999.0,34,-99.99,,,-99.99,,2013-01-21 17:23:00,
2013-01-21 12:33:00,51.0,24.0,30.01,SW,214,5.0,-999.0,35,-99.99,,,-99.99,,2013-01-21 17:33:00,
2013-01-21 12:43:00,51.0,24.0,30.01,SW,214,5.0,-999.0,35,-99.99,,,-99.99,,2013-01-21 17:43:00,
2013-01-21 12:53:00,51.0,24.0,30.01,SW,214,5.0,-999.0,35,-99.99,,,-99.99,,2013-01-21 17:53:00,
2013-01-21 13:03:00,52.0,27.0,29.98,NW,312,6.0,-999.0,37,-99.99,,,-99.99,,2013-01-21 18:03:00,
2013-01-21 13:12:00,52.0,27.0,29.98,NW,312,6.0,-999.0,37,-99.99,,,-99.99,,2013-01-21 18:12:00,
2013-01-21 13:23:00,51.0,26.0,29.97,NNE,17,6.0,-999.0,37,-99.99,,,-99.99,,2013-01-21 18:23:00,
2013-01-21 13:33:00,51.0,26.0,29.97,NNE,17,6.0,-999.0,37,-99.99,,,-99.99,,2013-01-21 18:33:00,
2013-01-21 13:43:00,51.0,26.0,29.97,NNE,17,6.0,-999.0,37,-99.99,,,-99.99,,2013-01-21 18:43:00,
2013-01-21 13:52:00,51.0,27.0,29.96,NW,309,7.0,-999.0,39,-99.99,,,-99.99,,2013-01-21 18:52:00,
2013-01-21 14:03:00,51.0,26.0,29.95,West,280,5.0,-999.0,38,-99.99,,,-99.99,,2013-01-21 19:03:00,
2013-01-21 14:13:00,51.0,26.0,29.95,West,280,5.0,-999.0,38,-99.99,,,-99.99,,2013-01-21 19:13:00,
2013-01-21 14:22:00,51.0,26.0,29.94,WSW,258,6.0,-999.0,38,-99.99,,,-99.99,,2013-01-21 19:22:00,
2013-01-21 14:33:00,51.0,26.0,29.94,WSW,240,6.0,-999.0,38,-99.99,,,-99.99,,2013-01-21 19:33:00,
2013-01-21 14:43:00,51.0,26.0,29.94,WSW,240,6.0,-999.0,38,-99.99,,,-99.99,,2013-01-21 19:43:00,
2013-01-21 14:53:00,51.0,27.0,29.95,WSW,239,5.0,-999.0,39,-99.99,,,-99.99,,2013-01-21 19:53:00,
2013-01-21 15:04:00,51.0,27.0,29.94,WSW,256,4.0,-999.0,39,-99.99,,,-99.99,,2013-01-21 20:04:00,
2013-01-21 15:12:00,51.0,27.0,29.94,WSW,256,4.0,-999.0,39,-99.99,,,-99.99,,2013-01-21 20:12:00,
2013-01-21 15:23:00,51.0,27.0,29.94,NNW,338,4.0,-999.0,39,-99.99,,,-99.99,,2013-01-21 20:23:00,
2013-01-21 15:33:00,50.0,27.0,29.94,West,279,5.0,-999.0,40,-99.99,,,-99.99,,2013-01-21 20:33:00,
2013-01-21 15:43:00,50.0,27.0,29.94,West,279,5.0,-999.0,40,-99.99,,,-99.99,,2013-01-21 20:43:00,
2013-01-21 15:53:00,50.0,27.0,29.93,WSW,241,2.0,-999.0,40,-99.99,,,-99.99,,2013-01-21 20:53:00,
2013-01-21 16:04:00,49.0,25.0,29.94,WNW,297,5.0,-999.0,39,-99.99,,,-99.99,,2013-01-21 21:04:00,
2013-01-21 16:12:00,49.0,25.0,29.94,WNW,297,5.0,-999.0,39,-99.99,,,-99.99,,2013-01-21 21:12:00,
2013-01-21 16:23:00,48.0,23.0,29.94,WSW,243,5.0,-999.0,37,-99.99,,,-99.99,,2013-01-21 21:23:00,
2013-01-21 16:33:00,46.0,21.0,29.95,WSW,252,6.0,-999.0,36,-99.99,,,-99.99,,2013-01-21 21:33:00,
2013-01-21 16:43:00,46.0,21.0,29.95,WSW,252,6.0,-999.0,36,-99.99,,,-99.99,,2013-01-21 21:43:00,
2013-01-21 16:53:00,46.0,21.0,29.96,SW,216,5.0,-999.0,37,-99.99,,,-99.99,,2013-01-21 21:53:00,
2013-01-21 17:03:00,45.0,19.0,29.96,West,261,4.0,-999.0,35,-99.99,,,-99.99,,2013-01-21 22:03:00,
2013-01-21 17:13:00,45.0,19.0,29.96,West,261,4.0,-999.0,35,-99.99,,,-99.99,,2013-01-21 22:13:00,
2013-01-21 17:23:00,44.0,19.0,29.96,South,174,3.0,-999.0,37,-99.99,,,-99.99,,2013-01-21 22:23:00,
2013-01-21 17:33:00,43.0,19.0,29.97,SW,232,2.0,-999.0,37,-99.99,,,-99.99,,2013-01-21 22:33:00,
2013-01-21 17:43:00,43.0,19.0,29.97,SW,232,2.0,-999.0,37,-99.99,,,-99.99,,2013-01-21 22:43:00,
2013-01-21 17:52:00,43.0,19.0,29.96,West,261,2.0,-999.0,38,-99.99,,,-99.99,,2013-01-21 22:52:00,
2013-01-21 18:03:00,42.0,17.0,29.97,South,190,2.0,-999.0,36,-99.99,,,-99.99,,2013-01-21 23:03:00,
2013-01-21 18:13:00,42.0,17.0,29.97,South,190,2.0,-999.0,36,-99.99,,,-99.99,,2013-01-21 23:13:00,
2013-01-21 18:23:00,41.0,17.0,29.97,WNW,283,2.0,-999.0,38,-99.99,,,-99.99,,2013-01-21 23:23:00,
2013-01-21 18:33:00,40.0,16.0,29.97,WNW,294,1.0,-999.0,38,-99.99,,,-99.99,,2013-01-21 23:33:00,
2013-01-21 18:42:00,40.0,16.0,29.97,WNW,294,1.0,-999.0,38,-99.99,,,-99.99,,2013-01-21 23:42:00,
2013-01-21 18:53:00,40.0,16.0,29.97,NW,319,1.0,-999.0,38,-99.99,,,-99.99,,2013-01-21 23:53:00,
2013-01-21 19:03:00,40.0,16.0,29.97,West,280,2.0,-999.0,38,-99.99,,,-99.99,,2013-01-22 00:03:00,
2013-01-21 19:12:00,40.0,16.0,29.97,West,280,2.0,-999.0,38,-99.99,,,-99.99,,2013-01-22 00:12:00,
2013-01-21 19:23:00,39.0,16.0,29.98,SW,236,2.0,-999.0,38,-99.99,,,-99.99,,2013-01-22 00:23:00,
2013-01-21 19:33:00,39.0,16.0,29.97,SSW,212,1.0,-999.0,38,-99.99,,,-99.99,,2013-01-22 00:33:00,
2013-01-21 19:43:00,39.0,16.0,29.97,SSW,212,1.0,-999.0,38,-99.99,,,-99.99,,2013-01-22 00:43:00,
2013-01-21 19:53:00,38.0,15.0,29.97,WNW,283,1.0,-999.0,39,-99.99,,,-99.99,,2013-01-22 00:53:00,
2013-01-21 20:02:00,38.0,15.0,29.97,NW,319,1.0,-999.0,39,-99.99,,,-99.99,,2013-01-22 01:02:00,
2013-01-21 20:12:00,38.0,15.0,29.97,NW,319,1.0,-999.0,39,-99.99,,,-99.99,,2013-01-22 01:12:00,
2013-01-21 20:23:00,38.0,16.0,29.97,SW,225,0.0,-999.0,40,-99.99,,,-99.99,,2013-01-22 01:23:00,
2013-01-21 20:33:00,37.0,14.0,29.97,WNW,294,0.0,-999.0,39,-99.99,,,-99.99,,2013-01-22 01:33:00,
2013-01-21 20:43:00,37.0,14.0,29.97,WNW,294,0.0,-999.0,39,-99.99,,,-99.99,,2013-01-22 01:43:00,
2013-01-21 20:52:00,37.0,15.0,29.97,WNW,294,0.0,-999.0,40,-99.99,,,-99.99,,2013-01-22 01:52:00,
2013-01-21 21:03:00,37.0,15.0,29.97,WNW,294,0.0,-999.0,40,-99.99,,,-99.99,,2013-01-22 02:03:00,
2013-01-21 21:12:00,37.0,15.0,29.97,WNW,294,0.0,-999.0,40,-99.99,,,-99.99,,2013-01-22 02:12:00,
2013-01-21 21:23:00,37.0,16.0,29.97,NW,309,0.0,-999.0,41,-99.99,,,-99.99,,2013-01-22 02:23:00,
2013-01-21 21:33:00,36.0,14.0,29.98,NW,314,1.0,-999.0,40,-99.99,,,-99.99,,2013-01-22 02:33:00,
2013-01-21 21:43:00,36.0,14.0,29.98,NW,314,1.0,-999.0,40,-99.99,,,-99.99,,2013-01-22 02:43:00,
2013-01-21 21:53:00,37.0,13.0,29.98,SSW,193,2.0,-999.0,36,-99.99,,,-99.99,,2013-01-22 02:53:00,
2013-01-21 22:03:00,36.0,13.0,29.98,West,273,1.0,-999.0,38,-99.99,,,-99.99,,2013-01-22 03:03:00,
2013-01-21 22:12:00,36.0,13.0,29.98,West,273,1.0,-999.0,38,-99.99,,,-99.99,,2013-01-22 03:12:00,
2013-01-21 22:22:00,36.0,12.0,29.98,NW,313,1.0,-999.0,37,-99.99,,,-99.99,,2013-01-22 03:22:00,
2013-01-21 22:33:00,36.0,12.0,29.98,NNW,335,3.0,-999.0,37,-99.99,,,-99.99,,2013-01-22 03:33:00,
2013-01-21 22:42:00,36.0,12.0,29.98,NNW,335,3.0,-999.0,37,-99.99,,,-99.99,,2013-01-22 03:42:00,
2013-01-21 22:52:00,35.0,10.0,29.99,NNW,343,3.0,-999.0,35,-99.99,,,-99.99,,2013-01-22 03:52:00,
2013-01-21 23:03:00,35.0,10.0,29.99,NNW,343,3.0,-999.0,35,-99.99,,,-99.99,,2013-01-22 04:03:00,
2013-01-21 23:12:00,35.0,10.0,29.99,NNW,343,3.0,-999.0,35,-99.99,,,-99.99,,2013-01-22 04:12:00,
2013-01-21 23:22:00,34.0,11.0,29.99,NW,325,2.0,-999.0,37,-99.99,,,-99.99,,2013-01-22 04:22:00,
2013-01-21 23:33:00,34.0,12.0,30.00,SSW,209,1.0,-999.0,39,-99.99,,,-99.99,,2013-01-22 04:33:00,
2013-01-21 23:42:00,34.0,12.0,30.00,SSW,209,1.0,-999.0,39,-99.99,,,-99.99,,2013-01-22 04:42:00,
2013-01-21 23:52:00,33.0,11.0,29.99,NW,313,2.0,-999.0,39,-99.99,,,-99.99,,2013-01-22 04:52:00,